Time;durP1;ratioP1;P1;durP2;ratioP2;P2;SDS_P1;SDS_P2;PMS_P1;PMS_P2;Temp;Humidity;BMP_temperature;BMP_pressure;BME280_temperature;BME280_humidity;BME280_pressure;Samples;Min_cycle;Max_cycle;Signal;HPM_P1;HPM_P2
2021/06/30 00:00:14;;;;;;;5.40;2.20;;;16.20;99.90;;;;;;4993659;28;20033;-77
2021/06/30 00:02:40;;;;;;;7.05;2.13;;;16.10;99.90;;;;;;4993702;28;20448;-77
2021/06/30 00:05:07;;;;;;;4.47;2.20;;;16.30;99.90;;;;;;4994313;28;20035;-77
2021/06/30 00:07:33;;;;;;;4.55;1.90;;;16.10;99.90;;;;;;4994114;28;20030;-77
2021/06/30 00:10:00;;;;;;;4.45;1.92;;;16.20;99.90;;;;;;5008297;28;20034;-77
2021/06/30 00:12:26;;;;;;;5.32;1.80;;;16.20;99.90;;;;;;4992651;28;20035;-78
2021/06/30 00:14:53;;;;;;;5.25;2.10;;;16.30;99.90;;;;;;4994111;28;20023;-78
2021/06/30 00:17:20;;;;;;;5.55;2.00;;;17.10;99.90;;;;;;4974822;28;20058;-78
2021/06/30 00:19:46;;;;;;;4.50;2.03;;;16.20;99.90;;;;;;4969478;28;20030;-78
2021/06/30 00:22:12;;;;;;;6.93;2.30;;;16.20;99.90;;;;;;4992095;28;20030;-77
2021/06/30 00:24:37;;;;;;;6.05;1.95;;;16.40;99.90;;;;;;4994355;28;20026;-78
2021/06/30 00:27:03;;;;;;;3.08;1.73;;;16.10;99.90;;;;;;4991694;28;20101;-78
2021/06/30 00:29:29;;;;;;;6.30;1.80;;;16.10;99.90;;;;;;4993343;28;20034;-78
2021/06/30 00:31:54;;;;;;;6.95;1.90;;;16.40;99.90;;;;;;4992610;28;20026;-78
2021/06/30 00:34:20;;;;;;;5.70;1.65;;;16.20;99.90;;;;;;4994113;28;20058;-78
2021/06/30 00:36:47;;;;;;;8.73;1.65;;;;;;;;;;4992746;28;20034;-78
2021/06/30 00:39:17;;;;;;;5.72;1.40;;;;;;;;;;4992291;28;20034;-78
2021/06/30 00:41:43;;;;;;;2.40;1.33;;;;;;;;;;4993485;28;20084;-78
2021/06/30 00:44:10;;;;;;;12.15;1.85;;;;;;;;;;4994826;28;20037;-78
2021/06/30 00:46:36;;;;;;;1.58;1.40;;;;;;;;;;4994629;28;20029;-78
2021/06/30 00:49:03;;;;;;;3.83;1.92;;;;;;;;;;4994181;28;20406;-78
2021/06/30 00:51:29;;;;;;;3.38;1.35;;;;;;;;;;4994182;28;20112;-78
2021/06/30 00:53:55;;;;;;;3.78;1.30;;;;;;;;;;5010310;28;20031;-78
2021/06/30 00:56:25;;;;;;;1.75;1.13;;;;;;;;;;4997157;28;20030;-78
2021/06/30 00:58:51;;;;;;;7.47;1.17;;;;;;;;;;4990242;28;20054;-78
2021/06/30 01:01:18;;;;;;;3.80;1.17;;;;;;;;;;4976819;28;20023;-78
2021/06/30 01:03:44;;;;;;;3.38;1.00;;;16.40;99.90;;;;;;4992063;28;20034;-78
2021/06/30 01:06:09;;;;;;;2.65;1.00;;;16.40;99.90;;;;;;4993257;28;20041;-78
2021/06/30 01:08:35;;;;;;;2.47;1.15;;;16.20;99.90;;;;;;4992820;28;20026;-78
2021/06/30 01:11:01;;;;;;;2.08;0.80;;;16.50;99.90;;;;;;4993538;28;20197;-79
2021/06/30 01:13:27;;;;;;;1.70;0.77;;;14.10;99.90;;;;;;4993090;28;20042;-78
2021/06/30 01:15:56;;;;;;;2.08;0.95;;;16.50;99.90;;;;;;4994220;28;20102;-78
2021/06/30 01:18:27;;;;;;;2.88;0.82;;;16.30;99.90;;;;;;4993757;28;20509;-78
2021/06/30 01:20:54;;;;;;;1.88;1.00;;;16.30;99.90;;;;;;4993248;28;20022;-77
2021/06/30 01:23:20;;;;;;;3.92;0.80;;;16.50;99.90;;;;;;4993739;28;20041;-78
2021/06/30 01:25:47;;;;;;;3.40;0.90;;;16.50;99.90;;;;;;4992607;28;20491;-78
2021/06/30 01:28:14;;;;;;;1.65;1.10;;;16.20;99.90;;;;;;4993640;28;20030;-78
2021/06/30 01:30:41;;;;;;;1.00;0.55;;;16.50;99.90;;;;;;5002650;28;20033;-78
2021/06/30 01:33:07;;;;;;;3.55;0.80;;;16.30;99.90;;;;;;4994503;28;20038;-78
2021/06/30 01:35:33;;;;;;;0.50;0.50;;;16.20;99.90;;;;;;4994176;28;20067;-78
2021/06/30 01:37:59;;;;;;;4.90;0.80;;;16.10;99.90;;;;;;5008773;28;20029;-78
2021/06/30 01:40:25;;;;;;;2.17;0.80;;;16.10;99.90;;;;;;4995788;28;20027;-80
2021/06/30 01:42:52;;;;;;;1.73;0.63;;;16.90;99.90;;;;;;4994240;28;20034;-78
2021/06/30 01:45:18;;;;;;;3.80;0.60;;;15.80;99.90;;;;;;4992898;28;20030;-78
2021/06/30 01:47:44;;;;;;;3.33;0.80;;;16.30;99.90;;;;;;4997257;28;20097;-78
2021/06/30 01:50:11;;;;;;;3.90;0.68;;;16.20;99.90;;;;;;4997438;28;20030;-78
2021/06/30 01:52:36;;;;;;;3.03;0.90;;;16.00;99.90;;;;;;4996140;28;20058;-78
2021/06/30 01:55:06;;;;;;;3.38;0.70;;;16.30;99.90;;;;;;4997169;28;20542;-78
2021/06/30 01:57:32;;;;;;;0.95;0.50;;;16.00;99.90;;;;;;4996984;28;20546;-78
2021/06/30 01:59:58;;;;;;;1.92;0.80;;;16.80;99.90;;;;;;4996544;28;20042;-78
2021/06/30 02:02:28;;;;;;;0.55;0.32;;;16.00;99.90;;;;;;4996907;28;20072;-78
2021/06/30 02:05:17;;;;;;;2.13;0.80;;;16.20;99.90;;;;;;4997511;28;20037;-78
2021/06/30 02:07:49;;;;;;;1.83;0.70;;;16.00;99.90;;;;;;4996750;28;20046;-78
2021/06/30 02:10:15;;;;;;;0.88;0.35;;;16.30;99.90;;;;;;4984206;28;20091;-78
2021/06/30 02:12:43;;;;;;;4.43;0.60;;;16.10;99.90;;;;;;4992819;28;20031;-78
2021/06/30 02:15:29;;;;;;;3.72;0.50;;;16.00;99.90;;;;;;5011822;28;20057;-78
2021/06/30 02:17:56;;;;;;;0.52;0.40;;;16.10;99.90;;;;;;4995162;28;20117;-78
2021/06/30 02:20:23;;;;;;;5.47;0.88;;;16.00;99.90;;;;;;4995328;28;20484;-78
2021/06/30 02:22:49;;;;;;;1.98;0.68;;;15.90;99.90;;;;;;4996782;28;20383;-78
2021/06/30 02:25:21;;;;;;;0.40;0.30;;;15.90;99.90;;;;;;4995985;28;20491;-78
2021/06/30 02:27:47;;;;;;;3.15;0.75;;;15.90;99.90;;;;;;4996936;28;20387;-78
2021/06/30 02:30:14;;;;;;;3.90;0.77;;;;;;;;;;4994483;28;20046;-78
2021/06/30 02:32:41;;;;;;;1.02;0.60;;;;;;;;;;4994733;28;20054;-78
2021/06/30 02:35:08;;;;;;;2.35;0.43;;;;;;;;;;4979048;28;20041;-78
2021/06/30 02:37:34;;;;;;;3.25;0.57;;;;;;;;;;4988294;28;20084;-78
2021/06/30 02:40:00;;;;;;;3.53;0.60;;;;;;;;;;4994277;28;20027;-78
2021/06/30 02:42:27;;;;;;;2.72;0.50;;;;;;;;;;4994588;28;20593;-78
2021/06/30 02:44:53;;;;;;;1.60;0.47;;;;;;;;;;4996229;28;20033;-78
2021/06/30 02:47:19;;;;;;;0.85;0.30;;;;;;;;;;4990724;28;20066;-78
2021/06/30 02:49:45;;;;;;;2.33;0.30;;;;;;;;;;4979099;28;20058;-77
2021/06/30 02:52:11;;;;;;;0.30;0.30;;;;;;;;;;4992766;28;20041;-78
2021/06/30 02:54:37;;;;;;;0.60;0.40;;;;;;;;;;4987190;28;20026;-78
2021/06/30 02:57:03;;;;;;;3.08;0.40;;;;;;;;;;4995996;28;20464;-78
2021/06/30 02:59:29;;;;;;;2.72;0.50;;;;;;;;;;4994396;28;20026;-78
2021/06/30 03:01:55;;;;;;;0.75;0.40;;;;;;;;;;4995282;28;20061;-76
2021/06/30 03:04:21;;;;;;;1.20;0.43;;;;;;;;;;4993873;28;20773;-77
2021/06/30 03:06:47;;;;;;;2.17;0.40;;;;;;;;;;4993664;28;20027;-76
2021/06/30 03:09:13;;;;;;;1.23;0.38;;;;;;;;;;4993128;28;20201;-76
2021/06/30 03:11:39;;;;;;;0.68;0.50;;;;;;;;;;4993623;28;20113;-77
2021/06/30 03:14:06;;;;;;;0.95;0.40;;;;;;;;;;4993486;28;20062;-76
2021/06/30 03:16:32;;;;;;;0.50;0.30;;;;;;;;;;4992612;28;20027;-76
2021/06/30 03:18:58;;;;;;;0.63;0.50;;;;;;;;;;4993033;28;20383;-76
2021/06/30 03:21:24;;;;;;;5.32;0.45;;;;;;;;;;4993698;28;20018;-77
2021/06/30 03:23:50;;;;;;;0.90;0.50;;;;;;;;;;4993716;28;20026;-77
2021/06/30 03:26:16;;;;;;;1.10;0.40;;;;;;;;;;4994921;28;20033;-77
2021/06/30 03:28:42;;;;;;;0.80;0.45;;;;;;;;;;4996188;28;20117;-77
2021/06/30 03:31:08;;;;;;;0.90;0.40;;;;;;;;;;4992507;28;20034;-76
2021/06/30 03:33:36;;;;;;;1.55;0.40;;;;;;;;;;4993517;28;20036;-77
2021/06/30 03:36:04;;;;;;;3.00;0.40;;;;;;;;;;4993599;28;20100;-77
2021/06/30 03:38:30;;;;;;;0.90;0.32;;;;;;;;;;4993215;28;20042;-76
2021/06/30 03:40:56;;;;;;;1.00;0.40;;;;;;;;;;4975252;28;20023;-77
2021/06/30 03:43:22;;;;;;;1.92;0.43;;;;;;;;;;4984818;28;20035;-77
2021/06/30 03:45:48;;;;;;;1.60;0.30;;;;;;;;;;4993301;28;20033;-77
2021/06/30 03:48:14;;;;;;;1.63;0.32;;;;;;;;;;4993367;28;20054;-77
2021/06/30 03:50:40;;;;;;;0.55;0.30;;;;;;;;;;4992746;28;20037;-76
2021/06/30 03:53:06;;;;;;;0.90;0.25;;;;;;;;;;4992934;28;20039;-77
2021/06/30 03:55:32;;;;;;;2.08;0.38;;;;;;;;;;4989930;28;20027;-77
2021/06/30 03:57:58;;;;;;;0.43;0.28;;;;;;;;;;4993150;28;20113;-77
2021/06/30 04:00:26;;;;;;;1.50;0.30;;;;;;;;;;4991940;28;20026;-77
2021/06/30 04:02:53;;;;;;;1.83;0.20;;;;;;;;;;4992884;28;20647;-77
2021/06/30 04:05:19;;;;;;;0.95;0.25;;;;;;;;;;4990972;28;20045;-77
2021/06/30 04:07:45;;;;;;;0.80;0.20;;;;;;;;;;4992643;28;20034;-76
2021/06/30 04:10:11;;;;;;;0.73;0.30;;;;;;;;;;4990116;28;20034;-77
2021/06/30 04:12:37;;;;;;;6.22;0.30;;;;;;;;;;4991175;28;20030;-77
2021/06/30 04:15:04;;;;;;;0.63;0.20;;;;;;;;;;4992287;28;20562;-76
2021/06/30 04:17:30;;;;;;;1.42;0.30;;;;;;;;;;4992883;28;20064;-77
2021/06/30 04:19:56;;;;;;;2.65;0.32;;;;;;;;;;4991928;28;20026;-76
2021/06/30 04:22:22;;;;;;;0.73;0.10;;;;;;;;;;4992365;28;20031;-77
2021/06/30 04:24:48;;;;;;;0.35;0.20;;;;;;;;;;4992396;28;20033;-77
2021/06/30 04:27:14;;;;;;;1.02;0.20;;;;;;;;;;4991015;28;20032;-77
2021/06/30 04:29:40;;;;;;;1.95;0.20;;;;;;;;;;5007019;28;20101;-77
2021/06/30 04:32:06;;;;;;;1.30;0.25;;;;;;;;;;4991174;28;20033;-77
2021/06/30 04:34:32;;;;;;;1.75;0.30;;;;;;;;;;4992195;28;20023;-76
2021/06/30 04:36:58;;;;;;;0.30;0.20;;;;;;;;;;4992391;28;20046;-77
2021/06/30 04:39:27;;;;;;;0.60;0.20;;;;;;;;;;4986356;28;20097;-77
2021/06/30 04:41:53;;;;;;;1.85;0.30;;;;;;;;;;4972651;28;20031;-76
2021/06/30 04:44:19;;;;;;;0.55;0.20;;;;;;;;;;4982135;28;20573;-77
2021/06/30 04:46:45;;;;;;;0.45;0.20;;;;;;;;;;4991929;28;20105;-77
2021/06/30 04:49:11;;;;;;;1.30;0.20;;;;;;;;;;4996485;28;20509;-77
2021/06/30 04:51:37;;;;;;;0.30;0.30;;;;;;;;;;4991659;28;20450;-77
2021/06/30 04:54:03;;;;;;;0.75;0.30;;;;;;;;;;4991778;28;20038;-77
2021/06/30 04:56:39;;;;;;;3.17;0.30;;;;;;;;;;4998075;23;20119;-74
2021/06/30 04:59:05;;;;;;;1.98;1.00;;;;;;;;;;4952615;28;20467;-74
2021/06/30 05:01:31;;;;;;;1.17;0.38;;;;;;;;;;4952919;28;20027;-75
2021/06/30 05:03:57;;;;;;;1.65;0.25;;;;;;;;;;4952997;28;20031;-75
2021/06/30 05:06:23;;;;;;;6.13;0.57;;;;;;;;;;4953440;28;20118;-75
2021/06/30 05:08:49;;;;;;;0.60;0.20;;;;;;;;;;4952940;29;20074;-75
2021/06/30 05:11:15;;;;;;;1.67;0.30;;;;;;;;;;4952845;29;20047;-75
2021/06/30 05:13:41;;;;;;;0.52;0.22;;;;;;;;;;4953360;29;20074;-76
2021/06/30 05:16:07;;;;;;;0.20;0.20;;;;;;;;;;4953262;28;20038;-75
2021/06/30 05:18:33;;;;;;;2.03;0.40;;;;;;;;;;4953287;29;20025;-75
2021/06/30 05:20:59;;;;;;;0.55;0.30;;;;;;;;;;4946741;29;20027;-75
2021/06/30 05:23:25;;;;;;;1.48;0.57;;;;;;;;;;4937773;29;20075;-75
2021/06/30 05:25:52;;;;;;;1.30;0.40;;;;;;;;;;4947662;29;20516;-75
2021/06/30 05:28:18;;;;;;;2.75;0.30;;;;;;;;;;4955899;28;20031;-75
2021/06/30 05:30:44;;;;;;;1.85;0.45;;;;;;;;;;4956472;29;20034;-75
2021/06/30 05:33:10;;;;;;;2.58;0.30;;;;;;;;;;4955397;29;20093;-74
2021/06/30 05:35:36;;;;;;;1.50;0.40;;;;;;;;;;4955600;29;20488;-75
2021/06/30 05:38:02;;;;;;;1.77;0.40;;;;;;;;;;4956678;28;20484;-75
2021/06/30 05:40:28;;;;;;;4.25;0.50;;;;;;;;;;4955790;29;20027;-75
2021/06/30 05:42:57;;;;;;;0.93;0.40;;;;;;;;;;4949459;28;20047;-77
2021/06/30 05:45:23;;;;;;;0.60;0.40;;;;;;;;;;4962165;28;20428;-76
2021/06/30 05:47:50;;;;;;;1.60;0.70;;;;;;;;;;4956616;28;20046;-76
2021/06/30 05:50:17;;;;;;;1.17;0.47;;;;;;;;;;4956775;29;20059;-78
2021/06/30 05:52:43;;;;;;;2.30;0.60;;;;;;;;;;4959145;29;20102;-78
2021/06/30 05:55:10;;;;;;;2.63;0.57;;;;;;;;;;4954397;29;20031;-80
2021/06/30 05:57:36;;;;;;;1.27;0.40;;;;;;;;;;4954674;28;20080;-78
2021/06/30 06:00:21;;;;;;;1.90;0.30;;;;;;;;;;4953489;29;20086;-75
2021/06/30 06:02:48;;;;;;;0.40;0.40;;;;;;;;;;4954959;29;20035;-76
2021/06/30 06:05:14;;;;;;;2.42;0.40;;;;;;;;;;4955174;29;20568;-76
2021/06/30 06:07:40;;;;;;;0.45;0.20;;;;;;;;;;4958315;28;20107;-79
2021/06/30 06:10:07;;;;;;;1.75;0.28;;;;;;;;;;4956040;29;20055;-78
2021/06/30 06:12:34;;;;;;;1.65;0.30;;;;;;;;;;4956455;29;20496;-76
2021/06/30 06:15:00;;;;;;;3.47;0.35;;;;;;;;;;4956077;29;20023;-76
2021/06/30 06:17:26;;;;;;;1.92;0.30;;;;;;;;;;4955575;28;20034;-76
2021/06/30 06:19:52;;;;;;;1.88;0.45;;;;;;;;;;4955178;29;20023;-76
2021/06/30 06:22:18;;;;;;;0.95;0.30;;;;;;;;;;4986551;28;20023;-76
2021/06/30 06:24:44;;;;;;;1.27;0.30;;;;;;;;;;4949883;29;20027;-76
2021/06/30 06:27:10;;;;;;;0.43;0.20;;;;;;;;;;4955719;28;20400;-76
2021/06/30 06:29:36;;;;;;;0.38;0.30;;;;;;;;;;4954545;29;20027;-76
2021/06/30 06:32:03;;;;;;;3.13;0.40;;;;;;;;;;4955497;28;20035;-75
2021/06/30 06:34:29;;;;;;;0.45;0.30;;;;;;;;;;4954828;29;20035;-76
2021/06/30 06:36:55;;;;;;;3.25;0.47;;;;;;;;;;4986260;28;20366;-76
2021/06/30 06:39:21;;;;;;;1.10;0.40;;;;;;;;;;4954622;29;20075;-76
2021/06/30 06:41:48;;;;;;;2.58;0.40;;;;;;;;;;4955627;29;20102;-75
2021/06/30 06:44:14;;;;;;;0.73;0.30;;;;;;;;;;4955223;29;20043;-74
2021/06/30 06:46:40;;;;;;;1.75;0.40;;;;;;;;;;4955517;28;20031;-76
2021/06/30 06:49:08;;;;;;;1.20;0.40;;;;;;;;;;4985704;28;20039;-75
2021/06/30 06:51:35;;;;;;;0.43;0.30;;;;;;;;;;4955452;29;20066;-75
2021/06/30 06:54:01;;;;;;;0.80;0.43;;;;;;;;;;4954064;29;20042;-76
2021/06/30 06:56:27;;;;;;;1.13;0.40;;;;;;;;;;4955232;28;20036;-76
2021/06/30 06:58:54;;;;;;;1.20;0.50;;;;;;;;;;4954069;29;20023;-73
2021/06/30 07:01:20;;;;;;;2.72;0.57;;;;;;;;;;4955421;29;20102;-75
2021/06/30 07:03:46;;;;;;;1.25;0.30;;;;;;;;;;4955146;29;20070;-75
2021/06/30 07:06:12;;;;;;;0.60;0.30;;;;;;;;;;4955123;28;20039;-75
2021/06/30 07:08:38;;;;;;;1.52;0.40;;;;;;;;;;4985332;28;20473;-75
2021/06/30 07:11:05;;;;;;;1.30;0.35;;;;;;;;;;4954764;29;20373;-75
2021/06/30 07:13:31;;;;;;;0.35;0.30;;;;;;;;;;4955246;29;20031;-76
2021/06/30 07:15:57;;;;;;;3.10;0.50;;;;;;;;;;4955404;29;20161;-76
2021/06/30 07:18:23;;;;;;;2.78;0.57;;;;;;;;;;4955130;29;20033;-76
2021/06/30 07:20:49;;;;;;;3.30;0.60;;;;;;;;;;4954627;29;20027;-76
2021/06/30 07:23:15;;;;;;;3.72;0.57;;;;;;;;;;4954603;29;20345;-75
2021/06/30 07:25:41;;;;;;;6.57;0.90;;;;;;;;;;4985671;28;20122;-76
2021/06/30 07:28:08;;;;;;;1.85;0.75;;;;;;;;;;4954796;28;20067;-75
2021/06/30 07:30:34;;;;;;;4.60;1.10;;;;;;;;;;4954174;29;20102;-75
2021/06/30 07:33:01;;;;;;;1.63;0.95;;;;;;;;;;4954727;29;20058;-75
2021/06/30 07:35:27;;;;;;;2.10;1.00;;;;;;;;;;4954632;29;20022;-76
2021/06/30 07:37:53;;;;;;;1.88;0.90;;;;;;;;;;4953650;28;20078;-75
2021/06/30 07:40:19;;;;;;;4.32;0.80;;;;;;;;;;4953845;28;20079;-76
2021/06/30 07:42:45;;;;;;;2.20;0.90;;;;;;;;;;4954539;29;20408;-74
2021/06/30 07:45:12;;;;;;;3.38;0.80;;;;;;;;;;4969354;28;20066;-75
2021/06/30 07:47:38;;;;;;;2.78;0.90;;;;;;;;;;4954567;28;20444;-76
2021/06/30 07:50:05;;;;;;;1.77;0.98;;;;;;;;;;4954345;29;20034;-75
2021/06/30 07:52:31;;;;;;;1.05;0.80;;;;;;;;;;4954058;29;20038;-75
2021/06/30 07:54:57;;;;;;;0.80;0.60;;;;;;;;;;4953359;28;20031;-74
2021/06/30 07:57:24;;;;;;;3.22;1.00;;;;;;;;;;4954161;28;20062;-75
2021/06/30 07:59:50;;;;;;;0.60;0.40;;;;;;;;;;4947398;29;20132;-74
2021/06/30 08:02:16;;;;;;;0.73;0.40;;;;;;;;;;4935168;29;20903;-75
2021/06/30 08:04:42;;;;;;;0.90;0.50;;;;;;;;;;4935013;29;20036;-77
2021/06/30 08:07:08;;;;;;;1.23;0.63;;;;;;;;;;4948486;28;20098;-75
2021/06/30 08:09:35;;;;;;;1.33;0.57;;;;;;;;;;4949680;29;20448;-74
2021/06/30 08:12:03;;;;;;;0.70;0.50;;;;;;;;;;4952163;29;20062;-75
2021/06/30 08:14:30;;;;;;;1.65;0.60;;;;;;;;;;4951906;29;20454;-75
2021/06/30 08:16:56;;;;;;;1.50;0.47;;;;;;;;;;4954047;28;20027;-75
2021/06/30 08:19:22;;;;;;;2.55;0.63;;;;;;;;;;4953380;29;20019;-75
2021/06/30 08:21:49;;;;;;;2.25;0.70;;;;;;;;;;4954014;29;20031;-75
2021/06/30 08:24:15;;;;;;;1.42;0.73;;;;;;;;;;4948250;29;20107;-75
2021/06/30 08:26:41;;;;;;;2.65;0.80;;;;;;;;;;4934809;29;20477;-76
2021/06/30 08:29:07;;;;;;;2.75;0.77;;;;;;;;;;4934055;29;20054;-75
2021/06/30 08:31:33;;;;;;;1.75;0.85;;;;;;;;;;4934742;29;20062;-76
2021/06/30 08:33:59;;;;;;;1.25;0.73;;;;;;;;;;4944637;29;20023;-76
2021/06/30 08:36:26;;;;;;;4.53;0.82;;;;;;;;;;4953684;28;20027;-76
2021/06/30 08:38:52;;;;;;;3.70;0.93;;;;;;;;;;4953101;29;20102;-74
2021/06/30 08:41:18;;;;;;;3.90;0.75;;;;;;;;;;4968380;28;20027;-76
2021/06/30 08:43:44;;;;;;;4.05;0.88;;;;;;;;;;4953504;29;20034;-76
2021/06/30 08:46:11;;;;;;;3.60;1.13;;;;;;;;;;4953670;28;20031;-76
2021/06/30 08:48:38;;;;;;;1.17;0.73;;;;;;;;;;4953276;29;20042;-76
2021/06/30 08:51:04;;;;;;;1.77;0.90;;;;;;;;;;4953210;29;20071;-76
2021/06/30 08:53:31;;;;;;;3.63;0.95;;;;;;;;;;4952355;29;20023;-75
2021/06/30 08:55:58;;;;;;;1.80;1.05;;;;;;;;;;4953134;29;20036;-74
2021/06/30 08:58:24;;;;;;;2.03;0.98;;;;;;;;;;4953383;29;20035;-76
2021/06/30 09:00:51;;;;;;;3.38;1.15;;;;;;;;;;4951586;29;20049;-76
2021/06/30 09:03:20;;;;;;;2.00;1.15;;;;;;;;;;4952198;29;20650;-76
2021/06/30 09:08:22;;;;;;;3.70;1.10;;;;;;;;;;4953284;28;20046;-74
2021/06/30 09:10:48;;;;;;;1.75;0.90;;;;;;;;;;4952716;29;20031;-76
2021/06/30 09:13:22;;;;;;;1.70;1.00;;;;;;;;;;4984578;28;20054;-76
2021/06/30 09:16:06;;;;;;;4.30;1.10;;;;;;;;;;4953738;29;20509;-76
2021/06/30 09:18:34;;;;;;;3.85;1.17;;;;;;;;;;4936620;28;20505;-75
2021/06/30 09:21:27;;;;;;;2.53;1.48;;;;;;;;;;4933730;29;20024;-75
2021/06/30 09:23:56;;;;;;;1.00;0.88;;;;;;;;;;4932767;29;20086;-75
2021/06/30 09:26:22;;;;;;;3.38;1.20;;;;;;;;;;4934207;29;20043;-76
2021/06/30 09:28:48;;;;;;;3.15;1.30;;;;;;;;;;4934117;29;20111;-76
2021/06/30 09:31:15;;;;;;;1.88;1.10;;;;;;;;;;4937118;29;20501;-76
2021/06/30 09:33:46;;;;;;;2.80;0.90;;;;;;;;;;4951598;29;20038;-75
2021/06/30 09:36:13;;;;;;;1.77;1.00;;;;;;;;;;4951438;28;20034;-76
2021/06/30 09:38:41;;;;;;;2.83;0.70;;;;;;;;;;4951566;29;20023;-75
2021/06/30 09:41:07;;;;;;;3.17;0.80;;;;;;;;;;4953443;29;20034;-75
2021/06/30 09:43:34;;;;;;;1.10;0.63;;;;;;;;;;4952066;29;20031;-75
2021/06/30 09:46:17;;;;;;;1.45;1.00;;;;;;;;;;4953030;28;20027;-75
2021/06/30 09:48:43;;;;;;;3.60;1.02;;;;;;;;;;4953078;29;20099;-75
2021/06/30 09:51:16;;;;;;;3.85;1.83;;;;;;;;;;4952571;29;20047;-76
2021/06/30 09:53:43;;;;;;;1.08;0.70;;;;;;;;;;4952918;29;20027;-75
2021/06/30 09:56:32;;;;;;;1.05;0.57;;;;;;;;;;4949784;29;20063;-74
2021/06/30 09:58:58;;;;;;;1.20;0.60;;;;;;;;;;4947518;29;20028;-75
2021/06/30 10:01:24;;;;;;;1.17;0.70;;;;;;;;;;4952849;29;20055;-75
2021/06/30 10:03:50;;;;;;;1.67;0.52;;;;;;;;;;4943930;28;20058;-75
2021/06/30 10:06:23;;;;;;;3.17;0.68;;;;;;;;;;4933789;29;20031;-76
2021/06/30 10:08:49;;;;;;;2.20;0.65;;;;;;;;;;4935269;29;20038;-76
2021/06/30 10:11:15;;;;;;;1.25;0.40;;;;;;;;;;4955698;29;20481;-75
2021/06/30 10:13:41;;;;;;;1.45;0.50;;;;;;;;;;4956039;29;20034;-75
2021/06/30 10:16:08;;;;;;;1.98;0.70;;;;;;;;;;4953575;29;20183;-75
2021/06/30 10:18:34;;;;;;;2.20;0.50;;;;;;;;;;4952543;29;20027;-74
2021/06/30 10:21:00;;;;;;;0.47;0.40;;;;;;;;;;4955172;29;20031;-75
2021/06/30 10:23:29;;;;;;;0.93;0.50;;;;;;;;;;4956804;29;20039;-74
2021/06/30 10:25:55;;;;;;;1.23;0.60;;;;;;;;;;4955695;29;20032;-75
2021/06/30 10:28:22;;;;;;;4.30;0.22;;;;;;;;;;4955691;28;20042;-75
2021/06/30 10:30:53;;;;;;;1.58;0.47;;;;;;;;;;4945291;29;20043;-74
2021/06/30 10:33:31;;;;;;;6.38;0.30;;;;;;;;;;4936469;29;20024;-75
2021/06/30 10:35:58;;;;;;;0.77;0.32;;;;;;;;;;4936704;29;20026;-75
2021/06/30 10:38:24;;;;;;;2.08;0.38;;;;;;;;;;4936246;29;20035;-75
2021/06/30 10:40:50;;;;;;;0.90;0.50;;;;;;;;;;4952557;29;20032;-75
2021/06/30 10:43:16;;;;;;;0.22;0.20;;;;;;;;;;4955856;29;20035;-75
2021/06/30 10:45:42;;;;;;;0.32;0.22;;;;;;;;;;4970374;28;20460;-76
2021/06/30 10:48:10;;;;;;;0.20;0.15;;;;;;;;;;4956288;28;20094;-75
2021/06/30 10:50:37;;;;;;;0.40;0.30;;;;;;;;;;4954685;29;20019;-75
2021/06/30 10:53:07;;;;;;;2.42;0.32;;;;;;;;;;4955165;29;20035;-76
2021/06/30 10:55:35;;;;;;;0.85;0.40;;;;;;;;;;4955073;29;20082;-75
2021/06/30 10:58:13;;;;;;;0.73;0.40;;;;;;;;;;4955306;28;20073;-76
2021/06/30 11:00:46;;;;;;;2.03;0.38;;;;;;;;;;4954237;29;20023;-75
2021/06/30 11:03:22;;;;;;;2.38;0.28;;;;;;;;;;4954655;29;20027;-75
2021/06/30 11:05:48;;;;;;;1.00;0.38;;;;;;;;;;4952864;29;20027;-74
2021/06/30 11:08:34;;;;;;;0.40;0.20;;;;;;;;;;4954488;28;20081;-75
2021/06/30 11:11:00;;;;;;;0.80;0.40;;;;;;;;;;4949157;28;20114;-75
2021/06/30 11:13:45;;;;;;;2.92;0.40;;;;;;;;;;4954218;28;20106;-74
2021/06/30 11:16:11;;;;;;;1.58;0.50;;;;;;;;;;4947542;28;20077;-75
2021/06/30 11:18:41;;;;;;;0.30;0.22;;;;;;;;;;4952144;28;20396;-75
2021/06/30 11:21:08;;;;;;;1.08;0.30;;;;;;;;;;4954638;28;20030;-77
2021/06/30 11:23:39;;;;;;;3.05;0.40;;;;;;;;;;4953838;28;20032;-74
2021/06/30 11:26:24;;;;;;;1.10;0.30;;;;;;;;;;4953973;28;20038;-75
2021/06/30 11:28:50;;;;;;;0.75;0.30;;;;;;;;;;4952706;29;20135;-77
2021/06/30 11:31:28;;;;;;;2.92;0.40;;;;;;;;;;4954284;29;20027;-76
2021/06/30 11:34:11;;;;;;;2.90;0.40;;;;;;;;;;4953415;29;20082;-75
2021/06/30 11:36:40;;;;;;;1.50;0.50;;;;;;;;;;4953294;28;20031;-77
2021/06/30 11:39:11;;;;;;;2.55;0.32;;;16.00;99.90;;;;;;4984367;28;20567;-77
2021/06/30 11:41:51;;;;;;;1.33;0.40;;;19.10;99.90;;;;;;4953992;28;20530;-76
2021/06/30 11:44:21;;;;;;;0.40;0.28;;;19.30;99.90;;;;;;4954521;29;20144;-74
2021/06/30 11:46:50;;;;;;;1.67;0.40;;;19.60;99.90;;;;;;4954384;28;20226;-77
2021/06/30 11:49:20;;;;;;;0.65;0.20;;;19.50;99.90;;;;;;4984927;28;20385;-75
2021/06/30 11:52:06;;;;;;;0.90;0.30;;;19.70;99.90;;;;;;4954039;29;20440;-77
2021/06/30 11:54:31;;;;;;;4.80;0.68;;;19.60;99.90;;;;;;4953499;28;20043;-77
2021/06/30 11:56:57;;;;;;;0.30;0.20;;;19.70;99.90;;;;;;4953332;28;20046;-77
2021/06/30 11:59:25;;;;;;;1.40;0.38;;;20.00;99.90;;;;;;4951868;29;20047;-77
2021/06/30 12:01:52;;;;;;;2.20;0.82;;;20.10;99.90;;;;;;4953532;29;20484;-76
2021/06/30 12:04:29;;;;;;;1.60;0.30;;;19.90;99.90;;;;;;4953437;28;20023;-76
2021/06/30 12:06:57;;;;;;;1.17;0.38;;;19.90;99.90;;;;;;4952901;28;20082;-74
2021/06/30 12:09:41;;;;;;;1.65;0.30;;;20.20;99.90;;;;;;4950783;29;20023;-74
2021/06/30 12:12:11;;;;;;;1.70;0.30;;;20.40;99.90;;;;;;4951528;29;20153;-74
2021/06/30 12:14:47;;;;;;;0.85;0.40;;;20.50;99.90;;;;;;4953230;28;20035;-75
2021/06/30 12:17:15;;;;;;;0.30;0.20;;;20.50;99.90;;;;;;4953289;28;20023;-75
2021/06/30 12:19:52;;;;;;;0.52;0.40;;;20.00;99.90;;;;;;4949872;29;20023;-74
2021/06/30 12:22:20;;;;;;;0.82;0.22;;;20.10;99.90;;;;;;4952917;28;20035;-75
2021/06/30 12:25:00;;;;;;;1.25;0.20;;;19.80;99.90;;;;;;4952057;28;20028;-74
2021/06/30 12:27:33;;;;;;;1.05;0.25;;;19.40;99.90;;;;;;4951375;28;20503;-74
2021/06/30 12:30:06;;;;;;;;;;;19.40;99.90;;;;;;4952998;28;20060;-75
2021/06/30 12:32:33;;;;;;;0.25;0.25;;;19.60;99.90;;;;;;4952220;28;19911;-75
2021/06/30 12:35:01;;;;;;;1.10;0.38;;;19.40;99.90;;;;;;4952966;29;20087;-75
2021/06/30 12:37:28;;;;;;;1.48;0.30;;;19.00;99.90;;;;;;4984034;28;20570;-76
2021/06/30 12:39:59;;;;;;;0.95;0.40;;;18.70;99.90;;;;;;4950831;28;20052;-75
2021/06/30 12:42:50;;;;;;;2.13;1.13;;;18.30;99.90;;;;;;4949465;29;20016;-75
2021/06/30 12:45:22;;;;;;;0.80;0.40;;;17.70;99.90;;;;;;4952319;29;20025;-74
2021/06/30 12:47:53;;;;;;;0.75;0.50;;;17.30;99.90;;;;;;4952544;28;20082;-75
2021/06/30 12:50:30;;;;;;;1.33;0.70;;;17.00;99.90;;;;;;4952368;29;20050;-76
2021/06/30 12:53:09;;;;;;;1.27;0.57;;;16.90;99.90;;;;;;4952937;29;20392;-75
2021/06/30 12:55:53;;;;;;;2.80;0.50;;;16.90;99.90;;;;;;4952671;29;20031;-75
2021/06/30 12:58:21;;;;;;;4.07;0.50;;;17.50;99.90;;;;;;4952323;28;20031;-75
2021/06/30 13:01:01;;;;;;;0.88;0.40;;;17.70;99.90;;;;;;4950996;29;20027;-74
2021/06/30 13:03:28;;;;;;;1.38;0.85;;;17.70;99.90;;;;;;4950881;29;20034;-75
2021/06/30 13:06:15;;;;;;;1.85;0.80;;;17.50;99.90;;;;;;4952786;28;20102;-76
2021/06/30 13:08:47;;;;;;;2.78;0.57;;;15.60;99.90;;;;;;4951588;29;20412;-75
2021/06/30 13:11:20;;;;;;;1.55;0.63;;;18.20;99.90;;;;;;4951410;29;20027;-75
2021/06/30 13:14:03;;;;;;;;;;;18.60;99.90;;;;;;4949915;29;20034;-75
2021/06/30 13:16:34;;;;;;;2.60;0.50;;;18.60;99.90;;;;;;4952403;28;19907;-75
2021/06/30 13:19:01;;;;;;;3.63;0.55;;;18.80;99.90;;;;;;4952080;28;20023;-76
2021/06/30 13:21:32;;;;;;;2.20;0.65;;;19.00;99.90;;;;;;4952796;28;20031;-76
2021/06/30 13:34:26;;;;;;;2.88;0.52;;;18.40;99.90;;;;;;4953023;29;20090;-76
2021/06/30 13:37:01;;;;;;;3.28;0.60;;;18.40;99.90;;;;;;4953104;28;20059;-74
2021/06/30 13:39:28;;;;;;;1.30;0.60;;;18.30;99.90;;;;;;4952025;29;20042;-76
2021/06/30 13:41:55;;;;;;;0.65;0.40;;;18.40;99.90;;;;;;4938622;28;20393;-74
2021/06/30 13:44:26;;;;;;;2.85;0.70;;;18.80;99.90;;;;;;4939996;28;20038;-75
2021/06/30 13:46:52;;;;;;;0.77;0.30;;;19.30;99.90;;;;;;4949186;28;20038;-74
2021/06/30 13:49:19;;;;;;;1.05;0.30;;;20.90;99.90;;;;;;4941665;29;20063;-75
2021/06/30 13:51:45;;;;;;;1.30;0.32;;;21.50;99.90;;;;;;4949614;28;20480;-75
2021/06/30 13:54:10;;;;;;;1.85;0.60;;;21.20;99.90;;;;;;4940160;29;20119;-75
2021/06/30 13:56:37;;;;;;;1.80;0.50;;;20.60;99.90;;;;;;4962314;28;20090;-74
2021/06/30 13:59:03;;;;;;;1.45;0.43;;;19.90;99.90;;;;;;4961199;28;20020;-76
2021/06/30 14:01:29;;;;;;;0.57;0.30;;;19.50;99.90;;;;;;4943354;28;20392;-76
2021/06/30 14:04:01;;;;;;;0.73;0.50;;;19.40;99.90;;;;;;4956176;28;20475;-75
2021/06/30 14:06:27;;;;;;;1.90;0.80;;;18.80;99.90;;;;;;4956176;28;20099;-75
2021/06/30 14:08:52;;;;;;;2.85;0.77;;;17.60;99.90;;;;;;4955143;29;20437;-74
2021/06/30 14:11:18;;;;;;;2.38;0.50;;;17.40;99.90;;;;;;4956226;28;20048;-75
2021/06/30 14:13:44;;;;;;;2.58;0.70;;;19.30;99.90;;;;;;4955902;28;20074;-75
2021/06/30 14:16:09;;;;;;;2.53;0.50;;;19.70;99.90;;;;;;4956013;28;20027;-76
2021/06/30 14:18:35;;;;;;;1.90;0.40;;;20.30;99.90;;;;;;4955286;28;20051;-76